createdAt,value
2018-05-18T00:00:17.781Z,3.10
2018-05-18T00:02:45.558Z,3.50
2018-05-18T00:05:13.335Z,3.80
2018-05-18T00:07:40.967Z,4.03
2018-05-18T00:10:08.873Z,3.37
2018-05-18T00:12:36.496Z,3.40
2018-05-18T00:15:04.163Z,3.27
2018-05-18T00:17:32.151Z,3.73
2018-05-18T00:19:59.917Z,3.97
2018-05-18T00:22:31.134Z,3.87
2018-05-18T00:24:58.910Z,4.13
2018-05-18T00:27:26.578Z,3.73
2018-05-18T00:29:54.176Z,4.20
2018-05-18T00:32:30.865Z,5.37
2018-05-18T00:34:58.511Z,4.27
2018-05-18T00:37:26.170Z,4.70
2018-05-18T00:39:53.941Z,4.70
2018-05-18T00:42:25.203Z,4.63
2018-05-18T00:44:52.881Z,4.80
2018-05-18T00:47:20.524Z,4.70
2018-05-18T00:49:48.132Z,4.77
2018-05-18T00:52:15.846Z,5.03
2018-05-18T00:54:43.657Z,4.93
2018-05-18T00:57:11.335Z,4.90
2018-05-18T00:59:38.969Z,4.87
2018-05-18T01:02:07.174Z,5.67
2018-05-18T01:04:34.815Z,6.53
2018-05-18T01:07:02.434Z,7.73
2018-05-18T01:09:30.543Z,8.87
2018-05-18T01:11:58.125Z,9.27
2018-05-18T01:16:58.658Z,8.90
2018-05-18T01:19:26.250Z,8.17
2018-05-18T01:21:53.844Z,7.03
2018-05-18T01:24:22.027Z,6.87
2018-05-18T01:26:57.063Z,7.97
2018-05-18T01:29:25.038Z,6.73
2018-05-18T01:31:52.681Z,6.90
2018-05-18T01:34:20.373Z,7.03
2018-05-18T01:36:48.209Z,6.97
2018-05-18T01:39:15.837Z,6.77
2018-05-18T01:41:43.503Z,8.43
2018-05-18T01:44:12.725Z,7.47
2018-05-18T01:46:47.496Z,7.80
2018-05-18T01:49:15.245Z,7.87
2018-05-18T01:51:43.820Z,7.53
2018-05-18T01:54:11.499Z,7.73
2018-05-18T01:56:39.327Z,7.63
2018-05-18T01:59:07.036Z,7.83
2018-05-18T02:01:34.618Z,7.97
2018-05-18T02:04:02.500Z,7.70
2018-05-18T02:06:30.147Z,7.90
2018-05-18T02:08:57.830Z,7.87
2018-05-18T02:11:25.521Z,7.87
2018-05-18T02:13:53.142Z,7.97
2018-05-18T02:16:20.815Z,9.83
2018-05-18T02:18:48.969Z,9.03
2018-05-18T02:21:16.581Z,8.73
2018-05-18T02:23:44.183Z,9.60
2018-05-18T02:26:12.340Z,9.43
2018-05-18T02:28:39.937Z,9.27
2018-05-18T02:31:07.583Z,9.47
2018-05-18T02:33:35.290Z,9.70
2018-05-18T02:36:02.942Z,8.87
2018-05-18T02:38:30.552Z,8.80
2018-05-18T02:40:58.935Z,9.03
2018-05-18T02:43:26.526Z,9.30
2018-05-18T02:45:54.178Z,9.70
2018-05-18T02:48:24.919Z,8.57
2018-05-18T02:50:54.676Z,13.33
2018-05-18T02:53:30.507Z,12.90
2018-05-18T02:55:58.105Z,10.07
2018-05-18T02:58:25.757Z,8.20
2018-05-18T03:00:53.468Z,8.47
2018-05-18T03:03:21.069Z,9.77
2018-05-18T03:05:48.704Z,9.20
2018-05-18T03:08:22.667Z,8.37
2018-05-18T03:10:56.807Z,8.27
2018-05-18T03:13:24.933Z,7.67
2018-05-18T03:15:52.512Z,7.93
2018-05-18T03:18:20.131Z,8.60
2018-05-18T03:20:48.333Z,8.23
2018-05-18T03:23:16.080Z,8.13
2018-05-18T03:25:43.728Z,8.57
2018-05-18T03:28:11.429Z,8.63
2018-05-18T03:30:39.013Z,8.33
2018-05-18T03:33:06.714Z,9.20
2018-05-18T03:35:34.423Z,7.57
2018-05-18T03:38:02.033Z,7.60
2018-05-18T03:40:29.676Z,7.77
2018-05-18T03:42:57.372Z,6.70
2018-05-18T03:45:24.991Z,7.67
2018-05-18T03:47:52.655Z,6.50
2018-05-18T03:50:20.808Z,6.70
2018-05-18T03:52:48.405Z,6.97
2018-05-18T03:55:16.099Z,7.33
2018-05-18T03:57:43.773Z,8.03
2018-05-18T04:00:11.416Z,7.63
2018-05-18T04:02:50.967Z,7.77
2018-05-18T04:05:30.227Z,8.40
2018-05-18T04:08:10.293Z,8.60
2018-05-18T04:10:37.885Z,7.63
2018-05-18T04:13:05.521Z,9.00
2018-05-18T04:15:33.334Z,7.90
2018-05-18T04:18:01.310Z,8.03
2018-05-18T04:20:28.882Z,8.57
2018-05-18T04:22:56.847Z,8.33
2018-05-18T04:25:24.420Z,9.30
2018-05-18T04:27:52.058Z,9.57
2018-05-18T04:30:19.837Z,8.30
2018-05-18T04:32:47.418Z,8.33
2018-05-18T04:35:15.504Z,8.67
2018-05-18T04:37:43.146Z,7.70
2018-05-18T04:40:10.756Z,8.97
2018-05-18T04:42:38.422Z,8.80
2018-05-18T04:45:06.267Z,8.57
2018-05-18T04:47:33.930Z,9.50
2018-05-18T04:50:01.608Z,7.25
2018-05-18T04:52:29.662Z,7.07
2018-05-18T04:54:57.325Z,5.70
2018-05-18T04:57:25.391Z,6.00
2018-05-18T04:59:53.143Z,5.87
2018-05-18T05:02:27.769Z,5.60
2018-05-18T05:04:55.649Z,4.68
2018-05-18T05:07:25.329Z,5.05
2018-05-18T05:09:53.015Z,4.25
2018-05-18T05:12:20.954Z,5.20
2018-05-18T05:14:48.728Z,4.95
2018-05-18T05:17:16.340Z,5.55
2018-05-18T05:19:44.597Z,4.70
2018-05-18T05:22:12.237Z,4.28
2018-05-18T05:24:39.860Z,4.70
2018-05-18T05:27:07.695Z,4.95
2018-05-18T05:29:35.460Z,3.95
2018-05-18T05:32:04.147Z,3.83
2018-05-18T05:34:31.775Z,4.32
2018-05-18T05:36:59.353Z,3.62
2018-05-18T05:39:26.984Z,4.00
2018-05-18T05:41:54.782Z,3.17
2018-05-18T05:44:22.408Z,4.50
2018-05-18T05:46:50.041Z,4.30
2018-05-18T05:49:18.758Z,3.97
2018-05-18T05:51:46.379Z,4.05
2018-05-18T05:54:13.968Z,3.85
2018-05-18T05:56:41.583Z,3.17
2018-05-18T05:59:09.197Z,3.72
2018-05-18T06:01:36.793Z,3.67
2018-05-18T06:04:04.781Z,3.90
2018-05-18T06:06:32.358Z,5.12
2018-05-18T06:08:59.937Z,3.90
2018-05-18T06:11:27.931Z,3.72
2018-05-18T06:13:55.585Z,4.05
2018-05-18T06:16:23.215Z,4.07
2018-05-18T06:18:51.034Z,4.00
2018-05-18T06:21:18.645Z,4.23
2018-05-18T06:23:46.264Z,3.90
2018-05-18T06:26:13.897Z,4.07
2018-05-18T06:28:41.546Z,3.53
2018-05-18T06:31:09.102Z,3.57
2018-05-18T06:33:37.223Z,3.57
2018-05-18T06:36:04.822Z,3.83
2018-05-18T06:38:32.417Z,3.47
2018-05-18T06:41:00.202Z,3.73
2018-05-18T06:43:27.787Z,3.50
2018-05-18T06:45:55.401Z,4.17
2018-05-18T06:48:23.187Z,3.07
2018-05-18T06:50:50.764Z,3.60
2018-05-18T06:53:18.338Z,7.17
2018-05-18T06:55:46.110Z,3.70
2018-05-18T06:58:13.709Z,3.47
2018-05-18T07:00:41.294Z,3.13
2018-05-18T07:03:09.227Z,4.37
2018-05-18T07:05:36.841Z,3.60
2018-05-18T07:08:04.477Z,3.43
2018-05-18T07:10:32.618Z,4.00
2018-05-18T07:13:00.248Z,2.87
2018-05-18T07:15:27.872Z,3.40
2018-05-18T07:17:55.680Z,3.57
2018-05-18T07:20:23.298Z,3.87
2018-05-18T07:22:50.876Z,3.33
2018-05-18T07:25:18.699Z,3.13
2018-05-18T07:27:46.324Z,3.90
2018-05-18T07:30:13.918Z,3.03
2018-05-18T07:32:41.911Z,3.60
2018-05-18T07:35:09.532Z,4.77
2018-05-18T07:37:37.137Z,4.10
2018-05-18T07:40:05.083Z,3.62
2018-05-18T07:42:32.745Z,3.55
2018-05-18T07:45:00.490Z,3.97
2018-05-18T07:47:28.275Z,3.58
2018-05-18T07:49:55.889Z,3.33
2018-05-18T07:52:23.471Z,4.12
2018-05-18T07:54:51.275Z,4.18
2018-05-18T07:57:18.854Z,3.80
2018-05-18T07:59:46.412Z,4.18
2018-05-18T08:02:14.042Z,3.95
2018-05-18T08:04:41.665Z,4.57
2018-05-18T08:07:09.290Z,4.25
2018-05-18T08:09:37.210Z,3.62
2018-05-18T08:12:04.789Z,3.97
2018-05-18T08:14:32.368Z,4.55
2018-05-18T08:17:00.880Z,4.90
2018-05-18T08:19:28.605Z,4.50
2018-05-18T08:21:56.209Z,5.03
2018-05-18T08:24:23.833Z,4.80
2018-05-18T08:27:03.083Z,6.57
2018-05-18T08:29:35.158Z,4.60
2018-05-18T08:32:02.760Z,5.55
2018-05-18T08:34:30.390Z,5.90
2018-05-18T08:36:58.187Z,5.05
2018-05-18T08:39:25.798Z,5.65
2018-05-18T08:41:53.441Z,5.78
2018-05-18T08:44:21.208Z,6.43
2018-05-18T08:46:48.824Z,5.82
2018-05-18T08:49:16.411Z,5.22
2018-05-18T08:51:44.084Z,6.22
2018-05-18T08:54:11.709Z,5.37
2018-05-18T08:56:39.257Z,5.30
2018-05-18T08:59:06.885Z,5.03
2018-05-18T09:01:34.478Z,5.05
2018-05-18T09:04:02.095Z,5.95
2018-05-18T09:06:30.166Z,6.47
2018-05-18T09:08:57.837Z,6.57
2018-05-18T09:11:25.424Z,6.30
2018-05-18T09:13:53.200Z,5.05
2018-05-18T09:16:20.796Z,5.85
2018-05-18T09:18:48.370Z,6.40
2018-05-18T09:21:16.002Z,7.70
2018-05-18T09:23:44.144Z,6.28
2018-05-18T09:26:11.764Z,6.20
2018-05-18T09:28:39.412Z,6.43
2018-05-18T09:31:07.004Z,6.55
2018-05-18T09:33:34.618Z,6.25
2018-05-18T09:36:02.253Z,6.43
2018-05-18T09:38:29.871Z,6.47
2018-05-18T09:40:57.477Z,6.43
2018-05-18T09:43:25.084Z,6.72
2018-05-18T09:45:52.676Z,6.72
2018-05-18T09:48:20.260Z,7.25
2018-05-18T09:50:47.868Z,7.87
2018-05-18T09:53:15.446Z,7.53
2018-05-18T09:55:43.047Z,6.75
2018-05-18T09:58:10.852Z,6.78
2018-05-18T10:00:38.518Z,6.45
2018-05-18T10:03:06.136Z,7.60
2018-05-18T10:05:33.783Z,7.00
2018-05-18T10:08:01.395Z,8.07
2018-05-18T10:10:28.964Z,7.80
2018-05-18T10:12:56.909Z,7.15
2018-05-18T10:15:24.490Z,5.68
2018-05-18T10:17:52.076Z,5.18
2018-05-18T10:20:20.024Z,5.20
2018-05-18T10:22:47.603Z,5.55
2018-05-18T10:25:15.259Z,5.70
2018-05-18T10:27:42.884Z,4.20
2018-05-18T10:30:10.497Z,5.15
2018-05-18T10:32:38.084Z,3.85
2018-05-18T10:35:05.695Z,4.00
2018-05-18T10:37:33.276Z,3.78
2018-05-18T10:40:00.845Z,3.80
2018-05-18T10:42:28.612Z,3.28
2018-05-18T10:44:56.189Z,3.58
2018-05-18T10:47:23.784Z,3.08
2018-05-18T10:49:52.325Z,3.10
2018-05-18T10:52:19.900Z,3.15
2018-05-18T10:54:47.478Z,3.58
2018-05-18T10:57:15.135Z,3.25
2018-05-18T10:59:42.746Z,4.05
2018-05-18T11:02:10.314Z,3.28
2018-05-18T11:04:38.076Z,3.37
2018-05-18T11:07:06.595Z,3.70
2018-05-18T11:09:34.179Z,4.15
2018-05-18T11:12:01.839Z,3.90
2018-05-18T11:14:29.440Z,3.70
2018-05-18T11:16:57.034Z,5.07
2018-05-18T11:19:24.844Z,3.22
2018-05-18T11:21:52.449Z,3.20
2018-05-18T11:24:20.039Z,4.87
2018-05-18T11:26:47.665Z,3.03
2018-05-18T11:29:15.253Z,3.40
2018-05-18T11:31:42.851Z,3.40
2018-05-18T11:34:10.859Z,3.30
2018-05-18T11:36:38.447Z,3.67
2018-05-18T11:39:06.183Z,2.90
2018-05-18T11:41:34.157Z,3.70
2018-05-18T11:44:01.740Z,3.00
2018-05-18T11:46:29.346Z,3.60
2018-05-18T11:48:57.292Z,3.33
2018-05-18T11:51:24.923Z,4.72
2018-05-18T11:53:52.529Z,3.42
2018-05-18T11:56:20.341Z,3.58
2018-05-18T11:58:47.920Z,3.53
2018-05-18T12:01:15.505Z,3.28
2018-05-18T12:03:43.437Z,4.00
2018-05-18T12:06:11.032Z,4.53
2018-05-18T12:08:38.626Z,3.53
2018-05-18T12:11:06.327Z,6.95
2018-05-18T12:13:33.969Z,4.12
2018-05-18T12:16:01.551Z,4.32
2018-05-18T12:18:29.314Z,5.03
2018-05-18T12:20:56.916Z,4.50
2018-05-18T12:23:24.508Z,4.75
2018-05-18T12:25:52.272Z,3.25
2018-05-18T12:28:19.902Z,4.37
2018-05-18T12:30:47.489Z,3.92
2018-05-18T12:33:15.125Z,5.93
2018-05-18T12:35:42.726Z,4.80
2018-05-18T12:38:10.364Z,4.55
2018-05-18T12:40:37.939Z,3.92
2018-05-18T12:43:05.505Z,4.37
2018-05-18T12:45:33.104Z,3.80
2018-05-18T12:48:00.731Z,5.68
2018-05-18T12:50:28.321Z,4.62
2018-05-18T12:52:55.959Z,10.85
2018-05-18T12:55:23.906Z,14.13
2018-05-18T12:57:51.501Z,8.15
2018-05-18T13:00:19.085Z,6.00
2018-05-18T13:02:47.070Z,7.22
2018-05-18T13:05:14.690Z,4.40
2018-05-18T13:07:42.289Z,4.28
2018-05-18T13:10:10.689Z,4.62
2018-05-18T13:12:38.304Z,5.00
2018-05-18T13:15:05.903Z,4.47
2018-05-18T13:17:34.069Z,5.80
2018-05-18T13:20:01.647Z,4.62
2018-05-18T13:22:29.244Z,4.10
2018-05-18T13:24:57.337Z,4.30
2018-05-18T13:27:24.871Z,4.85
2018-05-18T13:29:56.343Z,4.57
2018-05-18T13:32:23.982Z,4.10
2018-05-18T13:34:51.637Z,4.28
2018-05-18T13:37:19.251Z,4.43
2018-05-18T13:39:46.857Z,4.68
2018-05-18T13:42:14.452Z,4.57
2018-05-18T13:44:42.108Z,4.68
2018-05-18T13:47:09.702Z,4.53
2018-05-18T13:49:37.270Z,4.25
2018-05-18T13:52:04.863Z,4.05
2018-05-18T13:54:32.558Z,4.12
2018-05-18T13:57:00.210Z,4.03
2018-05-18T13:59:27.818Z,4.50
2018-05-18T14:01:55.464Z,5.40
2018-05-18T14:04:23.070Z,8.85
2018-05-18T14:06:50.718Z,6.53
2018-05-18T14:09:18.447Z,5.22
2018-05-18T14:11:46.047Z,5.62
2018-05-18T14:14:13.668Z,4.87
2018-05-18T14:16:41.767Z,4.32
2018-05-18T14:19:09.403Z,4.60
2018-05-18T14:21:37.009Z,4.93
2018-05-18T14:24:04.951Z,4.68
2018-05-18T14:26:32.530Z,5.10
2018-05-18T14:29:00.125Z,5.50
2018-05-18T14:31:28.128Z,5.15
2018-05-18T14:33:55.732Z,4.82
2018-05-18T14:36:23.329Z,6.78
2018-05-18T14:38:50.991Z,5.35
2018-05-18T14:41:18.578Z,4.60
2018-05-18T14:43:46.158Z,5.07
2018-05-18T14:46:14.109Z,4.43
2018-05-18T14:48:41.723Z,4.82
2018-05-18T14:51:09.393Z,4.45
2018-05-18T14:53:37.293Z,4.72
2018-05-18T14:56:04.934Z,4.28
2018-05-18T14:58:32.597Z,4.50
2018-05-18T15:01:00.445Z,4.25
2018-05-18T15:03:28.067Z,8.60
2018-05-18T15:05:55.685Z,5.75
2018-05-18T15:08:23.683Z,4.20
2018-05-18T15:10:51.310Z,4.45
2018-05-18T15:13:18.891Z,4.65
2018-05-18T15:15:46.838Z,3.97
2018-05-18T15:18:14.454Z,4.47
2018-05-18T15:20:42.027Z,4.72
2018-05-18T15:23:09.705Z,4.45
2018-05-18T15:25:37.320Z,4.32
2018-05-18T15:28:04.918Z,4.25
2018-05-18T15:30:32.562Z,4.10
2018-05-18T15:33:00.170Z,8.20
2018-05-18T15:35:27.756Z,9.57
2018-05-18T15:37:55.786Z,5.43
2018-05-18T15:40:23.411Z,6.57
2018-05-18T15:42:51.051Z,8.40
2018-05-18T15:45:18.697Z,7.55
2018-05-18T15:47:46.284Z,6.75
2018-05-18T15:50:13.868Z,6.05
2018-05-18T15:52:41.517Z,5.93
2018-05-18T15:55:09.167Z,6.55
2018-05-18T15:57:36.754Z,6.00
2018-05-18T16:00:04.421Z,6.30
2018-05-18T16:02:32.032Z,5.60
2018-05-18T16:04:59.665Z,5.60
2018-05-18T16:07:27.526Z,7.22
2018-05-18T16:09:55.112Z,6.12
2018-05-18T16:12:22.822Z,6.03
2018-05-18T16:14:50.788Z,5.65
2018-05-18T16:17:18.396Z,5.25
2018-05-18T16:19:46.015Z,6.95
2018-05-18T16:22:14.465Z,5.57
2018-05-18T16:24:42.061Z,6.72
2018-05-18T16:27:09.664Z,5.07
2018-05-18T16:29:37.746Z,5.03
2018-05-18T16:32:05.341Z,6.60
2018-05-18T16:34:33.020Z,5.95
2018-05-18T16:37:01.021Z,6.45
2018-05-18T16:39:28.646Z,6.50
2018-05-18T16:41:56.349Z,6.53
2018-05-18T16:44:23.983Z,5.47
2018-05-18T16:46:51.584Z,7.00
2018-05-18T16:49:19.188Z,7.20
2018-05-18T16:51:46.970Z,5.90
2018-05-18T16:54:14.585Z,6.65
2018-05-18T16:56:42.169Z,5.53
2018-05-18T16:59:10.155Z,7.50
2018-05-18T17:01:37.765Z,6.80
2018-05-18T17:04:05.370Z,6.55
2018-05-18T17:06:33.464Z,7.62
2018-05-18T17:09:01.052Z,10.23
2018-05-18T17:11:29.191Z,6.28
2018-05-18T17:13:57.245Z,6.60
2018-05-18T17:16:24.858Z,7.10
2018-05-18T17:18:52.585Z,9.15
2018-05-18T17:21:20.383Z,6.18
2018-05-18T17:23:47.983Z,6.50
2018-05-18T17:26:15.633Z,5.53
2018-05-18T17:28:43.470Z,6.62
2018-05-18T17:31:11.065Z,6.65
2018-05-18T17:33:38.672Z,6.95
2018-05-18T17:36:06.608Z,7.03
2018-05-18T17:38:34.278Z,6.95
2018-05-18T17:41:01.874Z,7.53
2018-05-18T17:43:29.515Z,7.35
2018-05-18T17:45:57.162Z,7.15
2018-05-18T17:48:24.769Z,6.82
2018-05-18T17:50:52.428Z,7.87
2018-05-18T17:53:20.189Z,7.68
2018-05-18T17:55:47.868Z,9.45
2018-05-18T17:58:16.225Z,11.45
2018-05-18T18:00:43.850Z,8.30
2018-05-18T18:03:11.410Z,9.17
2018-05-18T18:05:39.270Z,7.90
2018-05-18T18:08:06.797Z,3.77
2018-05-18T18:10:34.389Z,4.90
2018-05-18T18:13:02.054Z,5.90
2018-05-18T18:15:29.637Z,6.00
2018-05-18T18:17:57.224Z,4.93
2018-05-18T18:20:25.781Z,4.67
2018-05-18T18:22:53.375Z,4.07
2018-05-18T18:25:20.988Z,5.37
2018-05-18T18:27:48.797Z,4.57
2018-05-18T18:30:16.396Z,4.00
2018-05-18T18:32:43.982Z,6.47
2018-05-18T18:35:11.764Z,7.80
2018-05-18T18:37:39.336Z,5.90
2018-05-18T18:40:06.967Z,7.97
2018-05-18T18:42:34.597Z,6.33
2018-05-18T18:45:02.225Z,7.87
2018-05-18T18:47:29.784Z,7.03
2018-05-18T18:49:57.384Z,8.77
2018-05-18T18:52:25.013Z,9.47
2018-05-18T18:54:52.594Z,9.70
2018-05-18T18:57:20.519Z,11.23
2018-05-18T18:59:48.113Z,11.37
2018-05-18T19:02:15.715Z,10.73
2018-05-18T19:04:43.739Z,10.93
2018-05-18T19:07:11.342Z,11.33
2018-05-18T19:09:38.936Z,16.93
2018-05-18T19:12:06.565Z,16.83
2018-05-18T19:14:34.150Z,13.17
2018-05-18T19:17:01.733Z,10.03
2018-05-18T19:19:29.356Z,9.90
2018-05-18T19:21:56.966Z,9.57
2018-05-18T19:24:24.542Z,11.60
2018-05-18T19:26:52.568Z,13.73
2018-05-18T19:29:20.168Z,13.87
2018-05-18T19:31:47.767Z,13.87
2018-05-18T19:34:15.880Z,14.37
2018-05-18T19:36:43.485Z,13.03
2018-05-18T19:39:11.093Z,15.23
2018-05-18T19:41:38.862Z,12.13
2018-05-18T19:44:06.458Z,12.03
2018-05-18T19:46:34.043Z,12.60
2018-05-18T19:49:01.664Z,14.17
2018-05-18T19:51:29.353Z,13.83
2018-05-18T19:53:57.032Z,12.83
2018-05-18T19:56:24.859Z,13.40
2018-05-18T19:58:52.584Z,13.90
2018-05-18T20:01:20.196Z,13.10
2018-05-18T20:03:47.963Z,12.87
2018-05-18T20:06:15.540Z,13.93
2018-05-18T20:08:43.252Z,12.80
2018-05-18T20:11:11.976Z,12.43
2018-05-18T20:13:39.579Z,12.80
2018-05-18T20:16:07.185Z,13.50
2018-05-18T20:18:34.871Z,15.00
2018-05-18T20:21:02.583Z,12.90
2018-05-18T20:23:30.159Z,11.93
2018-05-18T20:25:58.164Z,15.50
2018-05-18T20:28:25.903Z,10.73
2018-05-18T20:30:53.599Z,11.17
2018-05-18T20:33:21.204Z,10.17
2018-05-18T20:35:48.844Z,10.13
2018-05-18T20:38:16.537Z,8.70
2018-05-18T20:40:44.582Z,8.53
2018-05-18T20:43:12.245Z,7.33
2018-05-18T20:45:39.896Z,7.47
2018-05-18T20:48:07.651Z,6.53
2018-05-18T20:50:35.234Z,5.97
2018-05-18T20:53:02.871Z,6.23
2018-05-18T20:55:31.052Z,7.07
2018-05-18T20:57:58.648Z,6.33
2018-05-18T21:00:26.769Z,6.03
2018-05-18T21:02:54.600Z,6.07
2018-05-18T21:05:22.227Z,5.20
2018-05-18T21:07:49.873Z,6.23
2018-05-18T21:10:17.548Z,6.63
2018-05-18T21:12:45.189Z,7.27
2018-05-18T21:15:12.823Z,8.23
2018-05-18T21:17:40.551Z,8.50
2018-05-18T21:20:08.187Z,7.63
2018-05-18T21:22:35.788Z,8.83
2018-05-18T21:25:03.584Z,10.90
2018-05-18T21:27:31.174Z,10.47
2018-05-18T21:29:58.810Z,9.37
2018-05-18T21:32:26.988Z,8.90
2018-05-18T21:34:54.571Z,9.67
2018-05-18T21:37:22.149Z,10.53
2018-05-18T21:39:49.996Z,10.80
2018-05-18T21:42:17.701Z,9.37
2018-05-18T21:44:45.341Z,8.33
2018-05-18T21:47:13.044Z,8.90
2018-05-18T21:49:40.683Z,7.77
2018-05-18T21:52:08.316Z,7.23
2018-05-18T21:54:36.378Z,7.80
2018-05-18T21:57:04.111Z,8.03
2018-05-18T21:59:31.720Z,8.57
2018-05-18T22:01:59.600Z,7.43
2018-05-18T22:04:27.256Z,9.03
2018-05-18T22:06:54.907Z,7.53
2018-05-18T22:09:22.607Z,8.37
2018-05-18T22:11:50.236Z,6.73
2018-05-18T22:14:17.945Z,6.60
2018-05-18T22:16:46.025Z,6.47
2018-05-18T22:19:13.603Z,4.30
2018-05-18T22:21:41.252Z,6.63
2018-05-18T22:24:08.976Z,4.63
2018-05-18T22:26:36.574Z,4.57
2018-05-18T22:29:04.253Z,5.27
2018-05-18T22:31:32.063Z,4.43
2018-05-18T22:33:59.770Z,4.57
2018-05-18T22:36:27.437Z,5.03
2018-05-18T22:38:55.119Z,4.67
2018-05-18T22:41:22.730Z,4.40
2018-05-18T22:43:50.427Z,4.00
2018-05-18T22:46:18.271Z,3.47
2018-05-18T22:48:45.957Z,4.07
2018-05-18T22:51:13.557Z,3.67
2018-05-18T22:53:41.461Z,4.50
2018-05-18T22:56:09.100Z,3.70
2018-05-18T22:58:36.669Z,4.27
2018-05-18T23:01:04.457Z,4.03
2018-05-18T23:03:32.107Z,4.93
2018-05-18T23:05:59.734Z,5.10
2018-05-18T23:08:27.895Z,5.03
2018-05-18T23:10:55.475Z,6.47
2018-05-18T23:13:23.130Z,6.03
2018-05-18T23:15:51.002Z,8.90
2018-05-18T23:18:18.661Z,10.90
2018-05-18T23:20:46.341Z,7.87
2018-05-18T23:23:14.488Z,7.27
2018-05-18T23:25:42.170Z,7.20
2018-05-18T23:28:09.729Z,6.97
2018-05-18T23:30:37.415Z,7.20
2018-05-18T23:33:05.004Z,8.17
2018-05-18T23:35:32.703Z,7.50
2018-05-18T23:38:00.417Z,8.07
2018-05-18T23:40:28.032Z,6.73
2018-05-18T23:42:55.659Z,7.07
2018-05-18T23:45:23.468Z,6.87
2018-05-18T23:47:51.172Z,6.93
2018-05-18T23:50:18.922Z,6.80
2018-05-18T23:52:46.546Z,5.60
2018-05-18T23:55:14.164Z,6.33
2018-05-18T23:57:41.783Z,5.93
